Time;durP1;ratioP1;P1;durP2;ratioP2;P2;SDS_P1;SDS_P2;PMS_P1;PMS_P2;Temp;Humidity;BMP_temperature;BMP_pressure;BME280_temperature;BME280_humidity;BME280_pressure;Samples;Min_cycle;Max_cycle;Signal;HPM_P1;HPM_P2
2022/02/20 00:01:55;;;;;;;24.18;6.85;;;;;;;4.70;100.00;100707.94;1741623;82;21027;-94
2022/02/20 00:04:21;;;;;;;24.55;8.20;;;;;;;4.70;100.00;100713.28;1724947;83;21340;-93
2022/02/20 00:06:47;;;;;;;32.67;9.20;;;;;;;4.69;100.00;100714.84;1719890;82;21609;-94
2022/02/20 00:09:13;;;;;;;30.72;8.35;;;;;;;4.69;100.00;100721.52;1725051;83;21039;-96
2022/02/20 00:11:39;;;;;;;26.48;7.97;;;;;;;4.66;100.00;100714.76;1720342;82;20968;-94
2022/02/20 00:14:05;;;;;;;26.80;7.42;;;;;;;4.66;100.00;100716.62;1724844;83;20868;-95
2022/02/20 00:16:31;;;;;;;21.27;7.62;;;;;;;4.65;100.00;100706.98;1741227;81;21075;-95
2022/02/20 00:18:57;;;;;;;26.00;7.97;;;;;;;4.65;100.00;100716.33;1725341;83;21072;-94
2022/02/20 00:21:25;;;;;;;26.35;7.87;;;;;;;4.62;100.00;100715.40;1741462;81;21023;-94
2022/02/20 00:23:51;;;;;;;24.32;7.42;;;;;;;4.60;100.00;100709.48;1650982;85;21052;-94
2022/02/20 00:26:17;;;;;;;25.08;7.60;;;;;;;4.59;100.00;100711.83;1687315;84;21042;-95
2022/02/20 00:28:43;;;;;;;30.17;8.20;;;;;;;4.57;100.00;100709.92;1682642;84;21087;-94
2022/02/20 00:31:09;;;;;;;28.47;8.55;;;;;;;4.53;100.00;100710.88;1682846;85;20967;-95
2022/02/20 00:33:35;;;;;;;30.80;7.67;;;;;;;4.49;100.00;100706.98;1679825;85;21074;-94
2022/02/20 00:36:02;;;;;;;27.75;7.40;;;;;;;4.46;100.00;100700.23;1687203;84;21801;-94
2022/02/20 00:38:28;;;;;;;27.37;7.72;;;;;;;4.45;100.00;100705.28;1682479;83;21073;-95
2022/02/20 00:40:55;;;;;;;22.37;7.12;;;;;;;4.43;100.00;100701.19;1682428;85;21997;-96
2022/02/20 00:43:21;;;;;;;25.65;8.18;;;;;;;4.40;100.00;100697.62;1683102;85;21208;-96
2022/02/20 00:45:46;;;;;;;35.75;8.65;;;;;;;4.37;100.00;100694.86;1688016;83;20982;-94
2022/02/20 00:48:17;;;;;;;29.20;7.85;;;;;;;4.35;100.00;100700.11;1661257;85;21059;-96
2022/02/20 00:50:41;;;;;;;32.10;8.55;;;;;;;4.33;100.00;100700.34;1686770;83;21010;-95
2022/02/20 00:53:07;;;;;;;28.20;8.25;;;;;;;4.31;100.00;100699.20;1684558;85;21140;-95
2022/02/20 00:55:33;;;;;;;31.05;8.65;;;;;;;4.31;100.00;100702.39;1690096;85;20998;-94
2022/02/20 00:57:59;;;;;;;24.82;8.18;;;;;;;4.29;100.00;100699.12;1694933;84;21608;-95
2022/02/20 01:00:25;;;;;;;31.57;7.95;;;;;;;4.29;100.00;100705.30;1684058;85;21098;-95
2022/02/20 01:02:51;;;;;;;25.48;8.63;;;;;;;4.29;100.00;100707.96;1689449;83;21028;-94
2022/02/20 01:05:17;;;;;;;33.65;9.50;;;;;;;4.28;100.00;100704.16;1683939;85;21029;-94
2022/02/20 01:07:43;;;;;;;23.87;8.40;;;;;;;4.28;100.00;100696.16;1665918;85;20998;-93
2022/02/20 01:10:13;;;;;;;38.15;9.65;;;;;;;4.28;100.00;100701.50;1694355;84;21769;-94
2022/02/20 01:12:39;;;;;;;33.18;9.75;;;;;;;4.27;100.00;100706.02;1694117;84;21136;-95
2022/02/20 01:15:08;;;;;;;29.70;9.33;;;;;;;4.27;100.00;100702.54;1686161;83;21102;-94
2022/02/20 01:17:34;;;;;;;33.65;10.00;;;;;;;4.27;100.00;100706.54;1753795;81;21407;-93
2022/02/20 01:20:00;;;;;;;32.08;10.53;;;;;;;4.27;100.00;100701.20;1735075;82;20996;-94
2022/02/20 01:22:28;;;;;;;35.73;10.72;;;;;;;4.26;100.00;100696.36;1754055;81;20986;-95
2022/02/20 01:24:55;;;;;;;38.92;11.40;;;;;;;4.28;100.00;100702.83;1735216;82;21156;-95
2022/02/20 01:27:22;;;;;;;43.92;11.70;;;;;;;4.28;100.00;100708.16;1735532;82;21050;-94
2022/02/20 01:29:48;;;;;;;41.92;11.63;;;;;;;4.27;100.00;100704.69;1735622;82;21161;-95
2022/02/20 01:32:14;;;;;;;43.58;12.75;;;;;;;4.29;100.00;100713.79;1735724;82;20880;-94
2022/02/20 01:34:41;;;;;;;43.60;13.48;;;;;;;4.31;100.00;100710.40;1735564;82;20966;-94
2022/02/20 01:37:07;;;;;;;51.65;12.37;;;;;;;4.30;100.00;100710.92;1735582;82;20995;-94
2022/02/20 01:39:34;;;;;;;36.77;11.80;;;;;;;4.33;100.00;100711.83;1735387;82;20943;-94
2022/02/20 01:42:00;;;;;;;40.63;12.82;;;;;;;4.32;100.00;100708.86;1735821;82;21986;-95
2022/02/20 01:44:26;;;;;;;54.30;14.40;;;;;;;4.32;100.00;100711.53;1735799;82;20904;-94
2022/02/20 01:46:54;;;;;;;48.78;12.60;;;;;;;4.32;100.00;100716.02;1709154;82;21012;-94
2022/02/20 01:49:21;;;;;;;41.45;13.15;;;;;;;4.32;100.00;100717.36;1697852;83;21083;-93
2022/02/20 01:51:47;;;;;;;49.50;14.60;;;;;;;4.30;100.00;100722.11;1700784;84;21048;-96
2022/02/20 01:54:14;;;;;;;38.48;12.93;;;;;;;4.29;100.00;100723.97;1700466;83;21114;-94
2022/02/20 01:56:40;;;;;;;47.95;13.55;;;;;;;4.28;100.00;100721.50;1700574;83;21004;-95
2022/02/20 01:59:06;;;;;;;46.98;13.50;;;;;;;4.23;100.00;100723.47;1700636;83;21083;-94
2022/02/20 02:01:32;;;;;;;45.95;13.50;;;;;;;4.17;100.00;100728.84;1700687;83;21540;-95
2022/02/20 02:03:58;;;;;;;47.10;13.40;;;;;;;4.09;100.00;100731.27;1700743;84;21040;-94
2022/02/20 02:06:24;;;;;;;43.78;12.47;;;;;;;4.00;100.00;100724.52;1700421;83;21047;-95
2022/02/20 02:08:50;;;;;;;45.90;13.95;;;;;;;3.91;100.00;100719.13;1700379;83;21525;-94
2022/02/20 02:11:17;;;;;;;49.42;14.78;;;;;;;3.85;100.00;100720.31;1700521;83;20991;-94
2022/02/20 02:13:43;;;;;;;51.10;14.80;;;;;;;3.80;100.00;100729.45;1682548;84;21051;-95
2022/02/20 02:16:08;;;;;;;46.10;14.80;;;;;;;3.75;100.00;100727.11;1700658;83;20912;-94
2022/02/20 02:18:36;;;;;;;54.58;15.30;;;;;;;3.70;100.00;100730.92;1700613;84;21099;-95
2022/02/20 02:21:02;;;;;;;63.02;15.43;;;;;;;3.62;100.00;100740.80;1700314;83;21005;-95
2022/02/20 02:23:28;;;;;;;51.63;15.55;;;;;;;3.57;100.00;100740.59;1700554;84;21131;-94
2022/02/20 02:25:56;;;;;;;58.08;16.25;;;;;;;3.52;100.00;100738.25;1700612;83;21007;-93
2022/02/20 02:28:22;;;;;;;43.38;14.78;;;;;;;3.41;100.00;100735.71;1682440;84;21083;-94
2022/02/20 02:30:48;;;;;;;51.35;15.23;;;;;;;3.41;100.00;100747.70;1700397;83;21123;-94
2022/02/20 02:33:32;;;;;;;58.95;15.28;;;;;;;3.34;100.00;100751.72;1700420;84;21012;-94
2022/02/20 02:36:00;;;;;;;56.35;16.45;;;;;;;3.27;100.00;100754.92;1700425;83;21032;-95
2022/02/20 02:38:27;;;;;;;53.00;15.30;;;;;;;3.23;100.00;100753.68;1700480;83;21071;-94
2022/02/20 02:40:59;;;;;;;57.00;15.90;;;;;;;3.19;100.00;100755.95;1700103;83;20976;-95
2022/02/20 02:43:26;;;;;;;62.55;16.37;;;;;;;3.13;100.00;100755.44;1700639;83;21182;-95
2022/02/20 02:45:52;;;;;;;52.05;14.63;;;;;;;3.08;100.00;100769.88;1708638;82;21012;-92
2022/02/20 02:48:18;;;;;;;57.95;15.43;;;;;;;3.02;100.00;100764.56;1743366;82;21222;-94
2022/02/20 02:50:46;;;;;;;55.78;15.05;;;;;;;2.94;100.00;100763.77;1743430;82;21978;-93
2022/02/20 02:53:12;;;;;;;52.58;15.58;;;;;;;2.90;100.00;100761.70;1743514;82;21570;-94
2022/02/20 02:55:38;;;;;;;57.13;16.20;;;;;;;2.87;100.00;100770.09;1743373;82;21079;-93
2022/02/20 02:58:05;;;;;;;55.83;15.90;;;;;;;2.82;100.00;100766.70;1738692;82;21448;-93
2022/02/20 03:00:33;;;;;;;64.47;16.52;;;;;;;2.79;100.00;100768.45;1743495;82;20948;-92
2022/02/20 03:02:58;;;;;;;46.73;15.23;;;;;;;2.76;100.00;100774.17;1742597;82;21019;-92
2022/02/20 03:05:24;;;;;;;58.80;17.15;;;;;;;2.73;100.00;100771.41;1743411;82;20877;-93
2022/02/20 03:07:50;;;;;;;49.23;14.35;;;;;;;2.68;100.00;100772.55;1743392;82;21609;-92
2022/02/20 03:10:16;;;;;;;58.87;16.12;;;;;;;2.66;100.00;100773.77;1743412;82;20877;-93
2022/02/20 03:12:42;;;;;;;45.85;15.08;;;;;;;2.63;100.00;100774.18;1743387;82;21071;-92
2022/02/20 03:15:10;;;;;;;51.88;15.28;;;;;;;2.60;100.00;100785.23;1743459;82;20931;-92
2022/02/20 03:17:36;;;;;;;55.98;16.93;;;;;;;2.56;100.00;100789.30;1742790;82;21004;-92
2022/02/20 03:20:02;;;;;;;60.05;16.52;;;;;;;2.53;100.00;100793.69;1743177;82;21926;-91
2022/02/20 03:22:28;;;;;;;54.45;17.30;;;;;;;2.49;100.00;100791.44;1743152;81;21516;-92
2022/02/20 03:24:54;;;;;;;54.55;16.67;;;;;;;2.48;100.00;100792.98;1743404;82;20891;-91
2022/02/20 03:27:20;;;;;;;63.83;18.37;;;;;;;2.37;100.00;100785.59;1743379;82;20959;-92
2022/02/20 03:29:46;;;;;;;52.75;17.02;;;;;;;2.39;100.00;100793.67;1743192;82;20873;-92
2022/02/20 03:32:11;;;;;;;60.63;16.90;;;;;;;2.36;100.00;100802.06;1743052;82;21131;-92
2022/02/20 03:34:37;;;;;;;56.20;17.25;;;;;;;2.37;100.00;100790.91;1743221;82;21534;-92
2022/02/20 03:37:03;;;;;;;56.33;17.02;;;;;;;2.37;100.00;100795.70;1743585;82;20904;-94
2022/02/20 03:39:29;;;;;;;51.58;17.02;;;;;;;2.37;100.00;100798.88;1743464;82;21583;-92
2022/02/20 03:41:55;;;;;;;50.92;15.78;;;;;;;2.37;100.00;100797.55;1743491;82;20936;-92
2022/02/20 03:44:21;;;;;;;54.80;16.42;;;;;;;2.37;100.00;100797.04;1743386;82;21876;-92
2022/02/20 03:46:47;;;;;;;62.35;17.27;;;;;;;2.37;100.00;100802.36;1724044;82;20956;-92
2022/02/20 03:49:13;;;;;;;62.73;16.25;;;;;;;2.37;100.00;100798.36;1700559;84;20869;-93
2022/02/20 03:51:38;;;;;;;54.53;16.20;;;;;;;2.38;100.00;100800.03;1700375;83;20968;-93
2022/02/20 03:54:04;;;;;;;51.20;15.78;;;;;;;2.38;100.00;100808.48;1700269;84;21195;-92
2022/02/20 03:56:30;;;;;;;47.50;15.60;;;;;;;2.37;100.00;100804.20;1700521;83;21509;-92
2022/02/20 03:58:56;;;;;;;49.80;15.13;;;;;;;2.38;100.00;100813.32;1700405;83;20857;-91
2022/02/20 04:01:22;;;;;;;51.68;15.93;;;;;;;2.38;100.00;100818.64;1700331;83;20976;-92
2022/02/20 04:03:48;;;;;;;47.13;15.65;;;;;;;2.38;100.00;100809.82;1700647;83;20924;-92
2022/02/20 04:06:14;;;;;;;50.20;15.78;;;;;;;2.38;100.00;100816.47;1700636;83;20901;-92
2022/02/20 04:08:40;;;;;;;50.30;14.55;;;;;;;2.37;100.00;100814.32;1700256;84;21875;-92
2022/02/20 04:11:05;;;;;;;45.43;14.30;;;;;;;2.37;100.00;100816.17;1700660;84;20888;-91
2022/02/20 04:13:31;;;;;;;53.78;14.15;;;;;;;2.38;100.00;100809.34;1700594;84;20972;-92
2022/02/20 04:15:57;;;;;;;51.95;14.10;;;;;;;2.39;100.00;100812.30;1700336;83;21075;-92
2022/02/20 04:18:23;;;;;;;58.63;14.55;;;;;;;2.39;100.00;100811.48;1700657;83;21448;-92
2022/02/20 04:20:49;;;;;;;42.33;14.10;;;;;;;2.38;100.00;100817.31;1700536;83;21074;-92
2022/02/20 04:23:15;;;;;;;41.20;13.65;;;;;;;2.36;100.00;100809.22;1700673;83;20964;-95
2022/02/20 04:25:41;;;;;;;50.48;13.68;;;;;;;2.32;100.00;100814.09;1700755;84;20900;-94
2022/02/20 04:28:07;;;;;;;46.42;14.13;;;;;;;2.32;100.00;100811.95;1682607;84;21064;-95
2022/02/20 04:30:33;;;;;;;40.63;13.38;;;;;;;2.28;100.00;100819.00;1700824;83;21267;-93
2022/02/20 04:32:59;;;;;;;44.65;14.10;;;;;;;2.27;100.00;100815.23;1700887;83;21544;-94
2022/02/20 04:35:25;;;;;;;46.08;14.23;;;;;;;2.25;100.00;100825.23;1700698;83;21125;-94
2022/02/20 04:37:53;;;;;;;53.35;14.43;;;;;;;2.23;100.00;100832.06;1700733;83;22432;-92
2022/02/20 04:40:20;;;;;;;49.93;14.87;;;;;;;2.20;100.00;100831.64;1700428;84;21057;-92
2022/02/20 04:42:48;;;;;;;48.73;15.28;;;;;;;2.17;100.00;100836.84;1700606;83;21000;-94
2022/02/20 04:45:13;;;;;;;52.98;14.87;;;;;;;2.10;100.00;100831.21;1700344;83;21079;-93
2022/02/20 04:47:39;;;;;;;48.02;14.90;;;;;;;2.16;100.00;100849.84;1716781;82;20956;-94
2022/02/20 04:50:06;;;;;;;49.93;15.88;;;;;;;2.17;100.00;100854.13;1692404;84;20962;-94
2022/02/20 04:52:32;;;;;;;46.40;14.10;;;;;;;2.17;100.00;100855.45;1692522;84;21035;-93
2022/02/20 04:54:58;;;;;;;42.05;14.18;;;;;;;2.17;100.00;100855.97;1724765;83;20853;-94
2022/02/20 04:57:24;;;;;;;47.25;15.75;;;;;;;2.18;100.00;100859.78;1692314;84;21169;-93
2022/02/20 04:59:55;;;;;;;54.58;15.63;;;;;;;2.20;100.00;100867.02;1692402;84;21182;-93
2022/02/20 05:02:18;;;;;;;51.33;15.20;;;;;;;2.20;100.00;100869.69;1689124;84;21059;-93
2022/02/20 05:04:44;;;;;;;49.38;13.78;;;;;;;2.25;100.00;100875.23;1670823;84;20944;-92
2022/02/20 05:07:10;;;;;;;54.58;14.98;;;;;;;2.31;100.00;100875.47;1692537;84;20972;-94
2022/02/20 05:09:36;;;;;;;51.42;14.33;;;;;;;2.38;100.00;100880.29;1692620;84;21183;-92
2022/02/20 05:12:02;;;;;;;57.88;14.65;;;;;;;2.44;100.00;100884.33;1692464;84;20853;-94
2022/02/20 05:14:28;;;;;;;42.90;13.43;;;;;;;2.51;100.00;100877.70;1692752;84;21012;-93
2022/02/20 05:16:54;;;;;;;48.95;14.53;;;;;;;2.57;100.00;100882.21;1692514;84;20889;-94
2022/02/20 05:19:20;;;;;;;41.45;13.68;;;;;;;2.66;100.00;100886.33;1692637;84;20953;-95
2022/02/20 05:21:46;;;;;;;41.95;13.60;;;;;;;2.78;100.00;100883.09;1692704;84;21045;-93
2022/02/20 05:24:11;;;;;;;44.42;12.58;;;;;;;2.96;100.00;100888.65;1692415;84;20873;-94
2022/02/20 05:26:37;;;;;;;35.35;11.68;;;;;;;3.49;100.00;100888.68;1692605;84;20979;-94
2022/02/20 05:29:03;;;;;;;33.63;10.40;;;;;;;5.10;100.00;100886.55;1692581;84;20885;-96
2022/02/20 05:31:29;;;;;;;32.35;10.70;;;;;;;6.88;100.00;100882.75;1692909;84;20920;-96
2022/02/20 05:33:57;;;;;;;32.05;10.05;;;;;;;8.20;100.00;100880.48;1692971;84;20988;-96
2022/02/20 05:36:24;;;;;;;28.60;9.48;;;;;;;9.38;100.00;100885.36;1665874;85;20932;-95
2022/02/20 05:38:51;;;;;;;26.42;9.25;;;;;;;10.17;100.00;100883.00;1665650;86;21023;-95
2022/02/20 05:41:17;;;;;;;30.43;9.53;;;;;;;10.84;100.00;100891.36;1666291;86;21556;-96
2022/02/20 05:43:43;;;;;;;24.02;9.30;;;;;;;10.89;100.00;100891.42;1666536;86;21086;-96
2022/02/20 05:46:09;;;;;;;22.52;8.40;;;;;;;10.77;100.00;100897.50;1666530;86;21122;-96
2022/02/20 05:48:37;;;;;;;24.63;8.40;;;;;;;11.44;100.00;100894.34;1694595;83;21113;-96
2022/02/20 05:51:06;;;;;;;25.00;9.68;;;;;;;11.86;100.00;100888.17;1697357;84;21083;-96
2022/02/20 05:53:54;;;;;;;19.10;8.13;;;;;;;12.41;100.00;100902.21;1674126;84;20994;-96
2022/02/20 05:56:49;;;;;;;22.30;7.45;;;;;;;13.15;100.00;100905.13;1691630;81;21127;-96
2022/02/20 05:59:15;;;;;;;21.77;8.05;;;;;;;13.96;100.00;100906.17;1650918;80;21016;-96
2022/02/20 06:04:24;;;;;;;24.95;8.38;;;;;;;15.45;100.00;100909.20;1690456;82;21073;-96
2022/02/20 06:07:10;;;;;;;20.88;7.30;;;;;;;16.31;97.45;100903.20;1688846;85;21090;-96
2022/02/20 06:09:43;;;;;;;28.12;8.68;;;;;;;17.09;89.26;100898.34;1587675;84;21005;-96
2022/02/20 06:12:10;;;;;;;17.87;7.47;;;;;;;18.06;71.83;100897.52;1579192;91;21342;-96
2022/02/20 06:14:35;;;;;;;17.92;7.35;;;;;;;19.06;78.23;100896.78;1576734;89;21117;-95
2022/02/20 06:17:02;;;;;;;15.75;6.70;;;;;;;20.01;65.71;100892.45;1576427;89;21776;-96
2022/02/20 06:19:28;;;;;;;19.12;7.17;;;;;;;20.87;58.56;100891.84;1576636;90;21779;-95
2022/02/20 06:21:54;;;;;;;13.88;6.62;;;;;;;21.49;55.03;100900.86;1584267;89;21398;-96
2022/02/20 06:24:20;;;;;;;19.12;7.12;;;;;;;21.85;51.60;100896.88;1583950;89;21258;-93
2022/02/20 06:26:45;;;;;;;13.75;5.90;;;;;;;22.55;51.49;100898.73;1584231;89;20866;-94
2022/02/20 06:29:12;;;;;;;14.53;6.67;;;;;;;23.18;45.99;100898.20;1583962;89;21028;-94
2022/02/20 06:31:38;;;;;;;13.53;6.47;;;;;;;23.29;44.46;100887.56;1563403;90;21033;-96
2022/02/20 06:34:04;;;;;;;14.85;5.62;;;;;;;23.31;41.34;100878.41;1651116;82;20931;-94
2022/02/20 06:36:30;;;;;;;11.68;6.10;;;;;;;23.41;40.66;100882.09;1738385;81;21887;-94
2022/02/20 06:38:56;;;;;;;14.00;5.87;;;;;;;23.39;39.56;100884.98;1753007;80;20955;-96
2022/02/20 06:41:22;;;;;;;14.07;6.10;;;;;;;23.85;40.78;100894.83;1721421;81;20891;-94
2022/02/20 06:43:48;;;;;;;11.40;5.00;;;;;;;24.34;38.67;100882.44;1753097;80;20849;-95
2022/02/20 06:46:14;;;;;;;11.28;5.25;;;;;;;24.53;33.68;100890.16;1752854;81;21653;-93
2022/02/20 06:48:40;;;;;;;9.78;5.25;;;;;;;24.69;37.58;100895.73;1752984;80;21023;-94
2022/02/20 06:51:06;;;;;;;12.58;5.17;;;;;;;25.38;37.12;100895.14;1752622;80;21015;-95
2022/02/20 06:53:32;;;;;;;10.30;5.03;;;;;;;25.85;35.06;100892.25;1753201;80;20900;-96
2022/02/20 06:55:58;;;;;;;10.18;4.95;;;;;;;26.07;33.93;100889.45;1754166;81;21042;-96
2022/02/20 06:58:24;;;;;;;8.70;4.65;;;;;;;26.33;34.25;100887.50;1753019;80;21081;-94
2022/02/20 07:00:50;;;;;;;10.30;4.10;;;;;;;26.59;33.02;100893.25;1752940;80;21188;-93
2022/02/20 07:03:16;;;;;;;7.33;3.75;;;;;;;26.88;32.50;100891.08;1752835;80;20939;-94
2022/02/20 07:05:42;;;;;;;7.40;3.50;;;;;;;27.32;32.83;100893.55;1752954;80;21673;-92
2022/02/20 07:08:08;;;;;;;8.70;3.75;;;;;;;27.91;30.34;100879.78;1720749;81;20876;-93
2022/02/20 07:10:34;;;;;;;6.12;3.25;;;;;;;27.64;28.25;100882.48;1741323;80;21071;-96
2022/02/20 07:13:07;;;;;;;5.90;3.15;;;;;;;27.67;28.86;100885.69;1739678;80;21191;-95
2022/02/20 07:15:33;;;;;;;7.50;3.45;;;;;;;27.64;29.10;100886.62;1673778;85;21648;-94
2022/02/20 07:17:59;;;;;;;6.05;3.30;;;;;;;28.14;28.46;100881.73;1674905;85;20993;-94
2022/02/20 07:20:26;;;;;;;6.37;3.12;;;;;;;27.99;26.89;100893.97;1673989;85;21624;-88
2022/02/20 07:22:52;;;;;;;6.08;2.75;;;;;;;27.99;26.89;100893.97;1673563;85;21005;-90
2022/02/20 07:25:19;;;;;;;5.55;3.00;;;;;;;28.22;27.41;100891.17;1673727;84;21745;-88
2022/02/20 07:27:45;;;;;;;6.12;2.87;;;;;;;27.94;25.85;100891.50;1673380;85;21904;-88
2022/02/20 07:30:14;;;;;;;7.55;3.67;;;;;;;28.09;27.10;100900.88;1673912;85;21127;-89
2022/02/20 07:32:40;;;;;;;6.50;3.30;;;;;;;28.25;26.69;100902.09;1674100;85;21001;-89
2022/02/20 07:35:08;;;;;;;6.83;3.30;;;;;;;28.87;25.86;100899.81;1673773;84;20985;-89
2022/02/20 07:37:34;;;;;;;5.58;3.05;;;;;;;29.25;26.41;100900.69;1673695;85;21582;-89
2022/02/20 07:40:00;;;;;;;6.05;3.58;;;;;;;29.54;24.56;100900.39;1673663;83;21040;-90
2022/02/20 07:42:26;;;;;;;6.40;3.80;;;;;;;29.23;24.67;100910.56;1673702;85;21097;-86
2022/02/20 07:44:52;;;;;;;9.30;3.37;;;;;;;28.87;24.52;100913.69;1673860;85;20973;-89
2022/02/20 07:47:18;;;;;;;7.92;3.33;;;;;;;28.84;24.26;100915.03;1673730;85;21502;-88
2022/02/20 07:49:44;;;;;;;6.03;3.35;;;;;;;28.49;24.50;100921.69;1651004;85;21157;-89
2022/02/20 07:52:10;;;;;;;6.37;3.60;;;;;;;28.40;24.54;100927.47;1650808;85;21770;-89
2022/02/20 07:54:36;;;;;;;4.90;3.20;;;;;;;28.93;25.14;100930.80;1673333;83;20880;-90
2022/02/20 07:57:03;;;;;;;5.92;3.27;;;;;;;29.09;24.36;100920.91;1671798;82;20950;-89
2022/02/20 07:59:29;;;;;;;5.25;3.17;;;;;;;29.10;24.63;100928.08;1664391;84;21215;-88
2022/02/20 08:01:55;;;;;;;5.60;3.20;;;;;;;29.42;23.38;100926.45;1645995;84;21808;-89
2022/02/20 08:04:20;;;;;;;5.05;2.98;;;;;;;29.68;24.03;100926.73;1664644;84;20944;-90
2022/02/20 08:06:46;;;;;;;5.78;3.22;;;;;;;30.03;22.29;100927.06;1710287;82;20856;-88
2022/02/20 08:09:13;;;;;;;8.58;3.08;;;;;;;29.41;22.60;100929.03;1710106;82;20911;-88
2022/02/20 08:11:39;;;;;;;7.62;2.77;;;;;;;29.14;22.88;100931.09;1710504;82;21019;-88
2022/02/20 08:14:05;;;;;;;7.28;3.67;;;;;;;29.29;22.30;100922.33;1710284;82;21185;-88
2022/02/20 08:16:34;;;;;;;7.37;3.20;;;;;;;28.65;23.05;100925.66;1710449;82;21492;-88
2022/02/20 08:18:59;;;;;;;5.55;3.10;;;;;;;28.76;22.94;100929.39;1667636;84;21486;-88
2022/02/20 08:21:26;;;;;;;5.75;3.45;;;;;;;28.98;22.89;100933.25;1667730;84;20914;-88
2022/02/20 08:23:52;;;;;;;8.75;3.47;;;;;;;29.72;22.32;100927.58;1667466;84;20994;-88
2022/02/20 08:26:18;;;;;;;4.95;2.95;;;;;;;29.61;22.00;100930.20;1667793;84;21183;-88
2022/02/20 08:28:45;;;;;;;7.72;3.35;;;;;;;28.78;21.41;100929.82;1667729;84;21169;-89
2022/02/20 08:31:11;;;;;;;4.85;3.02;;;;;;;28.67;22.68;100926.89;1667627;84;21589;-94
2022/02/20 08:33:38;;;;;;;7.10;3.02;;;;;;;29.26;22.47;100928.64;1667981;84;21133;-91
2022/02/20 08:36:05;;;;;;;6.97;3.15;;;;;;;29.34;21.50;100922.00;1667501;84;21491;-92
2022/02/20 08:38:31;;;;;;;6.47;2.87;;;;;;;29.59;22.76;100924.23;1667674;84;21159;-94
2022/02/20 08:40:57;;;;;;;5.78;3.20;;;;;;;29.57;22.15;100928.79;1667683;84;21391;-91
2022/02/20 08:43:23;;;;;;;4.25;2.75;;;;;;;29.54;21.81;100930.16;1668399;86;21072;-93
2022/02/20 08:45:49;;;;;;;4.60;2.85;;;;;;;29.37;21.88;100932.94;1667614;84;20906;-94
2022/02/20 08:48:15;;;;;;;8.13;3.00;;;;;;;29.52;21.35;100924.97;1667648;84;21644;-92
2022/02/20 08:50:42;;;;;;;4.95;3.30;;;;;;;29.52;22.75;100925.55;1667507;84;21088;-94
2022/02/20 08:53:10;;;;;;;7.83;3.40;;;;;;;30.41;22.33;100925.55;1667995;85;21113;-95
2022/02/20 08:55:36;;;;;;;4.60;2.92;;;;;;;29.97;21.52;100936.91;1667573;84;21143;-95
2022/02/20 08:58:03;;;;;;;4.25;2.50;;;;;;;29.48;21.26;100935.84;1667765;84;21527;-92
2022/02/20 09:00:29;;;;;;;4.87;2.20;;;;;;;28.95;21.26;100935.40;1667570;84;21058;-93
2022/02/20 09:02:58;;;;;;;3.90;2.10;;;;;;;26.98;22.07;100935.36;1667830;84;21078;-94
2022/02/20 09:05:24;;;;;;;6.30;2.40;;;;;;;24.74;22.88;100946.50;1667477;84;21074;-93
2022/02/20 09:07:50;;;;;;;6.15;1.80;;;;;;;22.46;24.63;100950.97;1667607;84;21577;-91
2022/02/20 09:10:17;;;;;;;7.17;2.30;;;;;;;20.43;26.11;100946.28;1663709;84;20990;-92
2022/02/20 09:12:43;;;;;;;5.92;1.77;;;;;;;18.72;27.92;100952.66;1660199;85;21069;-91
2022/02/20 09:15:11;;;;;;;6.50;1.80;;;;;;;17.45;29.55;100954.45;1675172;81;21875;-92
2022/02/20 09:17:37;;;;;;;4.12;1.87;;;;;;;16.28;30.52;100964.41;1728280;80;21055;-94
2022/02/20 09:20:06;;;;;;;6.28;1.95;;;;;;;15.45;32.29;100954.02;1723078;80;21045;-94
2022/02/20 09:22:32;;;;;;;6.83;1.80;;;;;;;14.84;33.31;100963.10;1691149;83;21536;-92
2022/02/20 09:25:01;;;;;;;4.25;1.90;;;;;;;14.19;34.86;100965.75;1686868;83;21035;-91
2022/02/20 09:27:27;;;;;;;3.55;1.50;;;;;;;13.52;35.66;100959.58;1662311;84;21203;-91
2022/02/20 09:29:53;;;;;;;7.20;1.67;;;;;;;13.03;36.42;100953.24;1685506;84;20853;-90
2022/02/20 09:32:22;;;;;;;7.15;2.02;;;;;;;12.70;37.45;100949.36;1681771;83;20920;-89
2022/02/20 09:34:47;;;;;;;3.83;1.98;;;;;;;11.80;38.94;100932.39;1683667;83;21651;-88
2022/02/20 09:37:13;;;;;;;3.80;1.80;;;;;;;11.80;38.94;100932.39;1675618;83;21098;-89
2022/02/20 09:39:39;;;;;;;5.33;1.87;;;;;;;11.73;39.92;100951.50;1680189;83;22253;-90
2022/02/20 09:42:06;;;;;;;6.22;1.92;;;;;;;11.75;39.98;100949.90;1680285;83;20916;-90
2022/02/20 09:44:32;;;;;;;6.03;1.90;;;;;;;11.63;40.74;100946.03;1690554;83;21043;-91
2022/02/20 09:46:59;;;;;;;7.53;2.12;;;;;;;11.36;41.19;100942.03;1686043;83;20976;-90
2022/02/20 09:49:27;;;;;;;6.28;1.80;;;;;;;11.27;42.33;100943.57;1685446;83;21467;-91
2022/02/20 09:51:55;;;;;;;3.37;1.40;;;;;;;11.19;41.84;100936.74;1657534;85;21109;-93
2022/02/20 09:54:25;;;;;;;9.90;2.45;;;;;;;11.23;42.09;100939.73;1683139;83;20959;-93
2022/02/20 09:56:54;;;;;;;4.60;1.50;;;;;;;11.11;42.14;100946.09;1656938;84;21016;-90
2022/02/20 09:59:19;;;;;;;7.55;2.35;;;;;;;11.04;42.79;100947.39;1692431;83;21047;-92
2022/02/20 10:02:10;;;;;;;4.40;1.62;;;;;;;11.04;43.02;100936.59;1685038;83;21093;-91
2022/02/20 10:04:49;;;;;;;2.67;1.50;;;;;;;11.02;43.05;100938.72;1683813;83;21097;-91
2022/02/20 10:07:38;;;;;;;5.20;2.02;;;;;;;10.93;43.40;100930.27;1652996;86;21267;-91
2022/02/20 10:10:19;;;;;;;5.83;1.40;;;;;;;10.82;44.14;100934.73;1654728;85;21042;-90
2022/02/20 10:12:48;;;;;;;4.67;1.47;;;;;;;10.68;43.81;100940.26;1605735;88;21085;-92
2022/02/20 10:15:35;;;;;;;6.60;1.90;;;;;;;10.64;44.06;100931.84;1604100;88;21081;-91
2022/02/20 10:18:22;;;;;;;5.35;1.72;;;;;;;10.66;44.22;100934.30;1555901;91;22051;-91
2022/02/20 10:20:53;;;;;;;3.50;1.17;;;;;;;10.65;44.24;100931.33;1555834;91;21120;-91
2022/02/20 10:23:18;;;;;;;5.45;1.67;;;;;;;10.55;44.78;100933.34;1553064;91;21128;-91
2022/02/20 10:25:47;;;;;;;6.87;1.82;;;;;;;10.52;45.16;100927.12;1556999;91;21884;-92
2022/02/20 10:28:13;;;;;;;5.72;1.25;;;;;;;10.46;45.11;100930.28;1558843;92;21060;-96
2022/02/20 10:30:40;;;;;;;5.30;1.60;;;;;;;10.49;45.59;100924.92;1559074;91;21284;-92
2022/02/20 10:33:20;;;;;;;6.17;1.50;;;;;;;10.42;44.71;100923.77;1539102;92;21065;-92
2022/02/20 10:35:49;;;;;;;4.62;1.40;;;;;;;10.26;45.04;100919.75;1559002;90;21580;-92
2022/02/20 10:38:19;;;;;;;2.47;1.00;;;;;;;10.21;44.46;100917.28;1558920;91;21109;-92
2022/02/20 10:40:50;;;;;;;3.98;1.10;;;;;;;10.23;44.94;100917.86;1559004;91;21766;-93
2022/02/20 10:43:31;;;;;;;4.72;1.55;;;;;;;10.25;44.53;100910.86;1558633;91;21240;-93
2022/02/20 10:46:20;;;;;;;3.02;1.15;;;;;;;10.20;44.44;100909.44;1620259;87;21076;-94
2022/02/20 10:48:49;;;;;;;2.50;1.00;;;;;;;10.12;44.58;100914.73;1619609;87;21122;-91
2022/02/20 10:51:18;;;;;;;5.20;1.27;;;;;;;10.00;44.17;100901.92;1567841;91;21101;-90
2022/02/20 10:53:56;;;;;;;4.03;1.15;;;;;;;9.87;44.51;100908.98;1567897;91;21005;-92
2022/02/20 10:56:38;;;;;;;3.87;1.05;;;;;;;9.87;44.89;100904.41;1547535;91;21768;-90
2022/02/20 10:59:05;;;;;;;3.95;0.90;;;;;;;9.85;45.54;100901.14;1566899;90;21053;-91
2022/02/20 11:01:31;;;;;;;3.40;1.00;;;;;;;9.84;44.46;100907.59;1568443;91;21004;-91
2022/02/20 11:04:08;;;;;;;4.42;1.12;;;;;;;9.85;44.79;100905.72;1568013;91;21006;-90
2022/02/20 11:06:34;;;;;;;4.65;1.30;;;;;;;9.87;45.10;100906.30;1567796;90;21258;-89
2022/02/20 11:09:04;;;;;;;3.10;1.20;;;;;;;9.87;44.99;100908.98;1567367;90;21972;-90
2022/02/20 11:11:42;;;;;;;3.20;1.45;;;;;;;9.91;45.41;100900.18;1551534;87;21138;-88
2022/02/20 11:14:14;;;;;;;2.12;1.10;;;;;;;9.94;45.38;100901.03;1648836;87;21535;-90
2022/02/20 11:16:47;;;;;;;3.95;1.20;;;;;;;9.99;45.74;100902.42;1649406;87;21571;-88
2022/02/20 11:19:16;;;;;;;3.72;1.22;;;;;;;10.08;45.97;100904.16;1649125;87;21130;-88
2022/02/20 11:21:45;;;;;;;1.42;0.82;;;;;;;10.10;45.47;100903.39;1649024;87;21165;-88